sensor_id;sensor_type;location;lat;lon;timestamp;pressure;altitude;pressure_sealevel;temperature
19040;BMP180;9652;49.014;12.052;2023-09-12T00:00:47;97577.00;;;21.50
19040;BMP180;9652;49.014;12.052;2023-09-12T00:03:21;97580.00;;;21.50
19040;BMP180;9652;49.014;12.052;2023-09-12T00:05:52;97576.00;;;21.40
19040;BMP180;9652;49.014;12.052;2023-09-12T00:08:21;97569.00;;;21.40
19040;BMP180;9652;49.014;12.052;2023-09-12T00:10:59;97579.00;;;21.40
19040;BMP180;9652;49.014;12.052;2023-09-12T00:13:26;97580.00;;;21.40
19040;BMP180;9652;49.014;12.052;2023-09-12T00:15:53;97571.00;;;21.40
19040;BMP180;9652;49.014;12.052;2023-09-12T00:18:21;97576.00;;;21.30
19040;BMP180;9652;49.014;12.052;2023-09-12T00:20:49;97568.00;;;21.30
19040;BMP180;9652;49.014;12.052;2023-09-12T00:23:17;97566.00;;;21.30
19040;BMP180;9652;49.014;12.052;2023-09-12T00:25:46;97565.00;;;21.20
19040;BMP180;9652;49.014;12.052;2023-09-12T00:28:13;97565.00;;;21.20
19040;BMP180;9652;49.014;12.052;2023-09-12T00:30:40;97572.00;;;21.20
19040;BMP180;9652;49.014;12.052;2023-09-12T00:33:07;97565.00;;;21.20
19040;BMP180;9652;49.014;12.052;2023-09-12T00:35:34;97566.00;;;21.10
19040;BMP180;9652;49.014;12.052;2023-09-12T00:38:01;97570.00;;;21.10
19040;BMP180;9652;49.014;12.052;2023-09-12T00:40:28;97548.00;;;21.10
19040;BMP180;9652;49.014;12.052;2023-09-12T00:42:58;97544.00;;;21.10
19040;BMP180;9652;49.014;12.052;2023-09-12T00:45:26;97552.00;;;21.10
19040;BMP180;9652;49.014;12.052;2023-09-12T00:47:54;97548.00;;;21.10
19040;BMP180;9652;49.014;12.052;2023-09-12T00:50:24;97548.00;;;21.00
19040;BMP180;9652;49.014;12.052;2023-09-12T00:52:53;97528.00;;;21.00
19040;BMP180;9652;49.014;12.052;2023-09-12T00:55:20;97552.00;;;21.00
19040;BMP180;9652;49.014;12.052;2023-09-12T00:57:48;97545.00;;;21.00
19040;BMP180;9652;49.014;12.052;2023-09-12T01:00:17;97536.00;;;21.00
19040;BMP180;9652;49.014;12.052;2023-09-12T01:02:46;97543.00;;;21.00
19040;BMP180;9652;49.014;12.052;2023-09-12T01:05:16;97542.00;;;20.90
19040;BMP180;9652;49.014;12.052;2023-09-12T01:07:44;97514.00;;;20.90
19040;BMP180;9652;49.014;12.052;2023-09-12T01:10:11;97558.00;;;20.90
19040;BMP180;9652;49.014;12.052;2023-09-12T01:12:38;97551.00;;;20.80
19040;BMP180;9652;49.014;12.052;2023-09-12T01:15:06;97544.00;;;20.80
19040;BMP180;9652;49.014;12.052;2023-09-12T01:17:42;97522.00;;;20.80
19040;BMP180;9652;49.014;12.052;2023-09-12T01:20:16;97546.00;;;20.80
19040;BMP180;9652;49.014;12.052;2023-09-12T01:23:02;97541.00;;;20.80
19040;BMP180;9652;49.014;12.052;2023-09-12T01:26:17;97541.00;;;20.70
19040;BMP180;9652;49.014;12.052;2023-09-12T01:28:47;97537.00;;;20.70
19040;BMP180;9652;49.014;12.052;2023-09-12T01:31:17;97539.00;;;20.70
19040;BMP180;9652;49.014;12.052;2023-09-12T01:33:45;97540.00;;;20.60
19040;BMP180;9652;49.014;12.052;2023-09-12T01:36:12;97531.00;;;20.60
19040;BMP180;9652;49.014;12.052;2023-09-12T01:38:39;97517.00;;;20.60
19040;BMP180;9652;49.014;12.052;2023-09-12T01:41:06;97534.00;;;20.50
19040;BMP180;9652;49.014;12.052;2023-09-12T01:43:36;97531.00;;;20.50
19040;BMP180;9652;49.014;12.052;2023-09-12T01:46:07;97537.00;;;20.50
19040;BMP180;9652;49.014;12.052;2023-09-12T01:48:36;97537.00;;;20.50
19040;BMP180;9652;49.014;12.052;2023-09-12T01:51:05;97538.00;;;20.50
19040;BMP180;9652;49.014;12.052;2023-09-12T01:53:34;97532.00;;;20.50
19040;BMP180;9652;49.014;12.052;2023-09-12T01:56:02;97533.00;;;20.50
19040;BMP180;9652;49.014;12.052;2023-09-12T01:58:30;97533.00;;;20.40
19040;BMP180;9652;49.014;12.052;2023-09-12T02:00:58;97528.00;;;20.40
19040;BMP180;9652;49.014;12.052;2023-09-12T02:03:27;97536.00;;;20.40
19040;BMP180;9652;49.014;12.052;2023-09-12T02:05:54;97534.00;;;20.40
19040;BMP180;9652;49.014;12.052;2023-09-12T02:08:21;97534.00;;;20.40
19040;BMP180;9652;49.014;12.052;2023-09-12T02:10:48;97532.00;;;20.40
19040;BMP180;9652;49.014;12.052;2023-09-12T02:13:15;97536.00;;;20.30
19040;BMP180;9652;49.014;12.052;2023-09-12T02:15:42;97536.00;;;20.30
19040;BMP180;9652;49.014;12.052;2023-09-12T02:18:09;97548.00;;;20.30
19040;BMP180;9652;49.014;12.052;2023-09-12T02:20:41;97538.00;;;20.30
19040;BMP180;9652;49.014;12.052;2023-09-12T02:23:11;97537.00;;;20.20
19040;BMP180;9652;49.014;12.052;2023-09-12T02:25:38;97479.00;;;20.20
19040;BMP180;9652;49.014;12.052;2023-09-12T02:28:06;97532.00;;;20.20
19040;BMP180;9652;49.014;12.052;2023-09-12T02:30:33;97541.00;;;20.20
19040;BMP180;9652;49.014;12.052;2023-09-12T02:33:00;97539.00;;;20.20
19040;BMP180;9652;49.014;12.052;2023-09-12T02:35:28;97546.00;;;20.20
19040;BMP180;9652;49.014;12.052;2023-09-12T02:37:57;97548.00;;;20.10
19040;BMP180;9652;49.014;12.052;2023-09-12T02:40:24;97514.00;;;20.10
19040;BMP180;9652;49.014;12.052;2023-09-12T02:42:52;97554.00;;;20.10
19040;BMP180;9652;49.014;12.052;2023-09-12T02:45:19;97544.00;;;20.10
19040;BMP180;9652;49.014;12.052;2023-09-12T02:47:46;97551.00;;;20.10
19040;BMP180;9652;49.014;12.052;2023-09-12T02:50:13;97536.00;;;20.10
19040;BMP180;9652;49.014;12.052;2023-09-12T02:52:41;97545.00;;;20.00
19040;BMP180;9652;49.014;12.052;2023-09-12T02:55:09;97550.00;;;20.00
19040;BMP180;9652;49.014;12.052;2023-09-12T02:57:37;97545.00;;;20.00
19040;BMP180;9652;49.014;12.052;2023-09-12T03:00:06;97566.00;;;20.00
19040;BMP180;9652;49.014;12.052;2023-09-12T03:02:35;97546.00;;;20.00
19040;BMP180;9652;49.014;12.052;2023-09-12T03:05:02;97553.00;;;20.00
19040;BMP180;9652;49.014;12.052;2023-09-12T03:07:29;97564.00;;;19.90
19040;BMP180;9652;49.014;12.052;2023-09-12T03:09:57;97556.00;;;19.90
19040;BMP180;9652;49.014;12.052;2023-09-12T03:12:25;97556.00;;;19.90
19040;BMP180;9652;49.014;12.052;2023-09-12T03:14:52;97567.00;;;19.90
19040;BMP180;9652;49.014;12.052;2023-09-12T03:17:20;97559.00;;;19.90
19040;BMP180;9652;49.014;12.052;2023-09-12T03:19:47;97563.00;;;19.90
19040;BMP180;9652;49.014;12.052;2023-09-12T03:22:14;97548.00;;;19.90
19040;BMP180;9652;49.014;12.052;2023-09-12T03:24:42;97550.00;;;19.80
19040;BMP180;9652;49.014;12.052;2023-09-12T03:27:10;97556.00;;;19.80
19040;BMP180;9652;49.014;12.052;2023-09-12T03:29:39;97560.00;;;19.80
19040;BMP180;9652;49.014;12.052;2023-09-12T03:32:06;97552.00;;;19.80
19040;BMP180;9652;49.014;12.052;2023-09-12T03:34:33;97550.00;;;19.80
19040;BMP180;9652;49.014;12.052;2023-09-12T03:37:01;97533.00;;;19.80
19040;BMP180;9652;49.014;12.052;2023-09-12T03:39:28;97550.00;;;19.80
19040;BMP180;9652;49.014;12.052;2023-09-12T03:41:55;97548.00;;;19.70
19040;BMP180;9652;49.014;12.052;2023-09-12T03:44:22;97541.00;;;19.70
19040;BMP180;9652;49.014;12.052;2023-09-12T03:46:50;97536.00;;;19.70
19040;BMP180;9652;49.014;12.052;2023-09-12T03:49:17;97537.00;;;19.70
19040;BMP180;9652;49.014;12.052;2023-09-12T03:51:45;97545.00;;;19.70
19040;BMP180;9652;49.014;12.052;2023-09-12T03:54:12;97542.00;;;19.70
19040;BMP180;9652;49.014;12.052;2023-09-12T03:56:39;97540.00;;;19.70
19040;BMP180;9652;49.014;12.052;2023-09-12T03:59:06;97544.00;;;19.60
19040;BMP180;9652;49.014;12.052;2023-09-12T04:01:34;97543.00;;;19.60
19040;BMP180;9652;49.014;12.052;2023-09-12T04:04:02;97542.00;;;19.60
19040;BMP180;9652;49.014;12.052;2023-09-12T04:06:29;97547.00;;;19.60
19040;BMP180;9652;49.014;12.052;2023-09-12T04:08:56;97525.00;;;19.60
19040;BMP180;9652;49.014;12.052;2023-09-12T04:11:23;97545.00;;;19.50
19040;BMP180;9652;49.014;12.052;2023-09-12T04:13:50;97545.00;;;19.50
19040;BMP180;9652;49.014;12.052;2023-09-12T04:16:18;97552.00;;;19.50
19040;BMP180;9652;49.014;12.052;2023-09-12T04:18:45;97548.00;;;19.50
19040;BMP180;9652;49.014;12.052;2023-09-12T04:21:13;97551.00;;;19.50
19040;BMP180;9652;49.014;12.052;2023-09-12T04:23:40;97545.00;;;19.40
19040;BMP180;9652;49.014;12.052;2023-09-12T04:26:07;97551.00;;;19.40
19040;BMP180;9652;49.014;12.052;2023-09-12T04:28:34;97545.00;;;19.40
19040;BMP180;9652;49.014;12.052;2023-09-12T04:31:02;97556.00;;;19.40
19040;BMP180;9652;49.014;12.052;2023-09-12T04:33:30;97557.00;;;19.40
19040;BMP180;9652;49.014;12.052;2023-09-12T04:36:01;97550.00;;;19.40
19040;BMP180;9652;49.014;12.052;2023-09-12T04:38:30;97560.00;;;19.30
19040;BMP180;9652;49.014;12.052;2023-09-12T04:41:01;97550.00;;;19.30
19040;BMP180;9652;49.014;12.052;2023-09-12T04:43:31;97550.00;;;19.30
19040;BMP180;9652;49.014;12.052;2023-09-12T04:45:58;97558.00;;;19.30
19040;BMP180;9652;49.014;12.052;2023-09-12T04:48:25;97550.00;;;19.30
19040;BMP180;9652;49.014;12.052;2023-09-12T04:50:52;97568.00;;;19.30
19040;BMP180;9652;49.014;12.052;2023-09-12T04:53:19;97545.00;;;19.20
19040;BMP180;9652;49.014;12.052;2023-09-12T04:55:47;97567.00;;;19.20
19040;BMP180;9652;49.014;12.052;2023-09-12T04:58:15;97567.00;;;19.20
19040;BMP180;9652;49.014;12.052;2023-09-12T05:00:42;97562.00;;;19.20
19040;BMP180;9652;49.014;12.052;2023-09-12T05:03:09;97571.00;;;19.20
19040;BMP180;9652;49.014;12.052;2023-09-12T05:05:36;97571.00;;;19.30
19040;BMP180;9652;49.014;12.052;2023-09-12T05:08:04;97570.00;;;19.20
19040;BMP180;9652;49.014;12.052;2023-09-12T05:10:32;97568.00;;;19.30
19040;BMP180;9652;49.014;12.052;2023-09-12T05:13:00;97568.00;;;19.30
19040;BMP180;9652;49.014;12.052;2023-09-12T05:15:27;97567.00;;;19.30
19040;BMP180;9652;49.014;12.052;2023-09-12T05:17:54;97567.00;;;19.30
19040;BMP180;9652;49.014;12.052;2023-09-12T05:20:21;97572.00;;;19.30
19040;BMP180;9652;49.014;12.052;2023-09-12T05:22:49;97571.00;;;19.40
19040;BMP180;9652;49.014;12.052;2023-09-12T05:25:16;97560.00;;;19.40
19040;BMP180;9652;49.014;12.052;2023-09-12T05:27:43;97572.00;;;19.40
19040;BMP180;9652;49.014;12.052;2023-09-12T05:30:12;97572.00;;;19.40
19040;BMP180;9652;49.014;12.052;2023-09-12T05:32:41;97547.00;;;19.40
19040;BMP180;9652;49.014;12.052;2023-09-12T05:35:08;97566.00;;;19.40
19040;BMP180;9652;49.014;12.052;2023-09-12T05:37:35;97572.00;;;19.40
19040;BMP180;9652;49.014;12.052;2023-09-12T05:40:03;97576.00;;;19.50
19040;BMP180;9652;49.014;12.052;2023-09-12T05:42:31;97591.00;;;19.50
19040;BMP180;9652;49.014;12.052;2023-09-12T05:44:58;97579.00;;;19.50
19040;BMP180;9652;49.014;12.052;2023-09-12T05:47:27;97576.00;;;19.50
19040;BMP180;9652;49.014;12.052;2023-09-12T05:49:54;97575.00;;;19.50
19040;BMP180;9652;49.014;12.052;2023-09-12T05:52:21;97571.00;;;19.60
19040;BMP180;9652;49.014;12.052;2023-09-12T05:54:48;97588.00;;;19.60
19040;BMP180;9652;49.014;12.052;2023-09-12T05:57:16;97526.00;;;19.60
19040;BMP180;9652;49.014;12.052;2023-09-12T05:59:43;97582.00;;;19.70
19040;BMP180;9652;49.014;12.052;2023-09-12T06:02:10;97570.00;;;19.70
19040;BMP180;9652;49.014;12.052;2023-09-12T06:04:39;97584.00;;;19.50
19040;BMP180;9652;49.014;12.052;2023-09-12T06:07:06;97585.00;;;19.70
19040;BMP180;9652;49.014;12.052;2023-09-12T06:09:33;97565.00;;;19.80
19040;BMP180;9652;49.014;12.052;2023-09-12T06:12:01;97591.00;;;19.80
19040;BMP180;9652;49.014;12.052;2023-09-12T06:14:28;97588.00;;;19.90
19040;BMP180;9652;49.014;12.052;2023-09-12T06:16:55;97568.00;;;20.00
19040;BMP180;9652;49.014;12.052;2023-09-12T06:19:23;97563.00;;;20.00
19040;BMP180;9652;49.014;12.052;2023-09-12T06:21:52;97582.00;;;20.10
19040;BMP180;9652;49.014;12.052;2023-09-12T06:24:20;97535.00;;;20.20
19040;BMP180;9652;49.014;12.052;2023-09-12T06:26:48;97548.00;;;20.30
19040;BMP180;9652;49.014;12.052;2023-09-12T06:29:15;97591.00;;;20.30
19040;BMP180;9652;49.014;12.052;2023-09-12T06:31:42;97596.00;;;20.40
19040;BMP180;9652;49.014;12.052;2023-09-12T06:34:10;97574.00;;;20.50
19040;BMP180;9652;49.014;12.052;2023-09-12T06:36:38;97574.00;;;20.60
19040;BMP180;9652;49.014;12.052;2023-09-12T06:39:08;97584.00;;;20.70
19040;BMP180;9652;49.014;12.052;2023-09-12T06:41:35;97569.00;;;20.80
19040;BMP180;9652;49.014;12.052;2023-09-12T06:44:02;97580.00;;;20.90
19040;BMP180;9652;49.014;12.052;2023-09-12T06:46:31;97587.00;;;20.90
19040;BMP180;9652;49.014;12.052;2023-09-12T06:49:01;97585.00;;;21.00
19040;BMP180;9652;49.014;12.052;2023-09-12T06:51:29;97593.00;;;21.10
19040;BMP180;9652;49.014;12.052;2023-09-12T06:53:56;97576.00;;;21.20
19040;BMP180;9652;49.014;12.052;2023-09-12T06:56:25;97599.00;;;21.30
19040;BMP180;9652;49.014;12.052;2023-09-12T06:58:53;97548.00;;;21.40
19040;BMP180;9652;49.014;12.052;2023-09-12T07:01:21;97602.00;;;21.50
19040;BMP180;9652;49.014;12.052;2023-09-12T07:03:48;97594.00;;;21.60
19040;BMP180;9652;49.014;12.052;2023-09-12T07:06:19;97595.00;;;21.70
19040;BMP180;9652;49.014;12.052;2023-09-12T07:08:46;97597.00;;;21.80
19040;BMP180;9652;49.014;12.052;2023-09-12T07:11:13;97568.00;;;21.80
19040;BMP180;9652;49.014;12.052;2023-09-12T07:13:42;97594.00;;;21.90
19040;BMP180;9652;49.014;12.052;2023-09-12T07:16:09;97602.00;;;22.00
19040;BMP180;9652;49.014;12.052;2023-09-12T07:18:37;97589.00;;;22.10
19040;BMP180;9652;49.014;12.052;2023-09-12T07:21:05;97578.00;;;22.20
19040;BMP180;9652;49.014;12.052;2023-09-12T07:23:33;97606.00;;;22.30
19040;BMP180;9652;49.014;12.052;2023-09-12T07:26:00;97607.00;;;22.40
19040;BMP180;9652;49.014;12.052;2023-09-12T07:28:30;97588.00;;;22.50
19040;BMP180;9652;49.014;12.052;2023-09-12T07:30:59;97600.00;;;22.60
19040;BMP180;9652;49.014;12.052;2023-09-12T07:33:26;97599.00;;;22.70
19040;BMP180;9652;49.014;12.052;2023-09-12T07:35:53;97594.00;;;22.80
19040;BMP180;9652;49.014;12.052;2023-09-12T07:38:21;97594.00;;;22.80
19040;BMP180;9652;49.014;12.052;2023-09-12T07:40:48;97577.00;;;22.90
19040;BMP180;9652;49.014;12.052;2023-09-12T07:43:16;97588.00;;;23.00
19040;BMP180;9652;49.014;12.052;2023-09-12T07:45:43;97603.00;;;23.10
19040;BMP180;9652;49.014;12.052;2023-09-12T07:48:11;97601.00;;;23.20
19040;BMP180;9652;49.014;12.052;2023-09-12T07:50:39;97589.00;;;23.00
19040;BMP180;9652;49.014;12.052;2023-09-12T07:53:06;97590.00;;;23.40
19040;BMP180;9652;49.014;12.052;2023-09-12T07:55:36;97600.00;;;23.40
19040;BMP180;9652;49.014;12.052;2023-09-12T07:58:11;97593.00;;;23.50
19040;BMP180;9652;49.014;12.052;2023-09-12T08:00:38;97597.00;;;23.60
19040;BMP180;9652;49.014;12.052;2023-09-12T08:03:05;97605.00;;;23.70
19040;BMP180;9652;49.014;12.052;2023-09-12T08:05:34;97574.00;;;23.80
19040;BMP180;9652;49.014;12.052;2023-09-12T08:08:01;97603.00;;;23.80
19040;BMP180;9652;49.014;12.052;2023-09-12T08:10:29;97591.00;;;23.90
19040;BMP180;9652;49.014;12.052;2023-09-12T08:12:56;97606.00;;;24.00
19040;BMP180;9652;49.014;12.052;2023-09-12T08:15:23;97601.00;;;24.10
19040;BMP180;9652;49.014;12.052;2023-09-12T08:17:50;97593.00;;;24.20
19040;BMP180;9652;49.014;12.052;2023-09-12T08:20:19;97604.00;;;24.30
19040;BMP180;9652;49.014;12.052;2023-09-12T08:22:48;97601.00;;;24.40
19040;BMP180;9652;49.014;12.052;2023-09-12T08:25:15;97598.00;;;24.40
19040;BMP180;9652;49.014;12.052;2023-09-12T08:27:43;97591.00;;;24.50
19040;BMP180;9652;49.014;12.052;2023-09-12T08:30:12;97586.00;;;24.60
19040;BMP180;9652;49.014;12.052;2023-09-12T08:32:40;97612.00;;;24.70
19040;BMP180;9652;49.014;12.052;2023-09-12T08:35:10;97605.00;;;24.70
19040;BMP180;9652;49.014;12.052;2023-09-12T08:37:39;97610.00;;;24.80
19040;BMP180;9652;49.014;12.052;2023-09-12T08:40:10;97612.00;;;24.90
19040;BMP180;9652;49.014;12.052;2023-09-12T08:42:40;97608.00;;;25.00
19040;BMP180;9652;49.014;12.052;2023-09-12T08:45:13;97606.00;;;25.10
19040;BMP180;9652;49.014;12.052;2023-09-12T08:47:43;97613.00;;;25.20
19040;BMP180;9652;49.014;12.052;2023-09-12T08:50:13;97610.00;;;25.30
19040;BMP180;9652;49.014;12.052;2023-09-12T08:52:41;97621.00;;;25.30
19040;BMP180;9652;49.014;12.052;2023-09-12T08:55:10;97609.00;;;25.40
19040;BMP180;9652;49.014;12.052;2023-09-12T08:57:41;97607.00;;;25.50
19040;BMP180;9652;49.014;12.052;2023-09-12T09:00:10;97614.00;;;25.60
19040;BMP180;9652;49.014;12.052;2023-09-12T09:02:39;97595.00;;;25.70
19040;BMP180;9652;49.014;12.052;2023-09-12T09:05:08;97612.00;;;25.80
19040;BMP180;9652;49.014;12.052;2023-09-12T09:07:36;97608.00;;;25.80
19040;BMP180;9652;49.014;12.052;2023-09-12T09:10:07;97611.00;;;25.90
19040;BMP180;9652;49.014;12.052;2023-09-12T09:12:40;97602.00;;;26.00
19040;BMP180;9652;49.014;12.052;2023-09-12T09:15:27;97616.00;;;26.10
19040;BMP180;9652;49.014;12.052;2023-09-12T09:17:57;97611.00;;;26.10
19040;BMP180;9652;49.014;12.052;2023-09-12T09:20:30;97609.00;;;26.20
19040;BMP180;9652;49.014;12.052;2023-09-12T09:23:02;97590.00;;;26.30
19040;BMP180;9652;49.014;12.052;2023-09-12T09:25:32;97593.00;;;26.40
19040;BMP180;9652;49.014;12.052;2023-09-12T09:28:03;97609.00;;;26.50
19040;BMP180;9652;49.014;12.052;2023-09-12T09:30:43;97602.00;;;26.60
19040;BMP180;9652;49.014;12.052;2023-09-12T09:33:11;97600.00;;;26.70
19040;BMP180;9652;49.014;12.052;2023-09-12T09:35:41;97598.00;;;26.80
19040;BMP180;9652;49.014;12.052;2023-09-12T09:38:09;97602.00;;;26.90
19040;BMP180;9652;49.014;12.052;2023-09-12T09:40:42;97600.00;;;26.90
19040;BMP180;9652;49.014;12.052;2023-09-12T09:43:11;97584.00;;;27.00
19040;BMP180;9652;49.014;12.052;2023-09-12T09:45:45;97605.00;;;27.10
19040;BMP180;9652;49.014;12.052;2023-09-12T09:48:18;97594.00;;;27.20
19040;BMP180;9652;49.014;12.052;2023-09-12T09:50:46;97591.00;;;27.30
19040;BMP180;9652;49.014;12.052;2023-09-12T09:53:13;97596.00;;;27.40
19040;BMP180;9652;49.014;12.052;2023-09-12T09:55:40;97576.00;;;27.50
19040;BMP180;9652;49.014;12.052;2023-09-12T09:58:08;97569.00;;;27.50
19040;BMP180;9652;49.014;12.052;2023-09-12T10:00:38;97578.00;;;27.60
19040;BMP180;9652;49.014;12.052;2023-09-12T10:03:06;97582.00;;;27.70
19040;BMP180;9652;49.014;12.052;2023-09-12T10:05:37;97585.00;;;27.80
19040;BMP180;9652;49.014;12.052;2023-09-12T10:08:07;97586.00;;;27.90
19040;BMP180;9652;49.014;12.052;2023-09-12T10:10:37;97585.00;;;28.00
19040;BMP180;9652;49.014;12.052;2023-09-12T10:13:07;97576.00;;;28.10
19040;BMP180;9652;49.014;12.052;2023-09-12T10:15:39;97582.00;;;28.20
19040;BMP180;9652;49.014;12.052;2023-09-12T10:18:14;97571.00;;;28.20
19040;BMP180;9652;49.014;12.052;2023-09-12T10:20:51;97562.00;;;28.30
19040;BMP180;9652;49.014;12.052;2023-09-12T10:23:24;97563.00;;;28.40
19040;BMP180;9652;49.014;12.052;2023-09-12T10:25:55;97564.00;;;28.50
19040;BMP180;9652;49.014;12.052;2023-09-12T10:28:24;97558.00;;;28.60
19040;BMP180;9652;49.014;12.052;2023-09-12T10:30:56;97564.00;;;28.60
19040;BMP180;9652;49.014;12.052;2023-09-12T10:33:24;97566.00;;;28.70
19040;BMP180;9652;49.014;12.052;2023-09-12T10:35:58;97567.00;;;28.80
19040;BMP180;9652;49.014;12.052;2023-09-12T10:38:28;97562.00;;;28.80
19040;BMP180;9652;49.014;12.052;2023-09-12T10:40:59;97557.00;;;28.90
19040;BMP180;9652;49.014;12.052;2023-09-12T10:43:29;97567.00;;;29.00
19040;BMP180;9652;49.014;12.052;2023-09-12T10:46:01;97548.00;;;29.10
19040;BMP180;9652;49.014;12.052;2023-09-12T10:48:29;97554.00;;;29.20
19040;BMP180;9652;49.014;12.052;2023-09-12T10:50:58;97559.00;;;29.20
19040;BMP180;9652;49.014;12.052;2023-09-12T10:53:27;97548.00;;;29.30
19040;BMP180;9652;49.014;12.052;2023-09-12T10:56:14;97552.00;;;29.40
19040;BMP180;9652;49.014;12.052;2023-09-12T10:59:09;97552.00;;;29.40
19040;BMP180;9652;49.014;12.052;2023-09-12T11:01:41;97541.00;;;29.50
19040;BMP180;9652;49.014;12.052;2023-09-12T11:04:34;97555.00;;;29.50
19040;BMP180;9652;49.014;12.052;2023-09-12T11:07:31;97543.00;;;29.50
19040;BMP180;9652;49.014;12.052;2023-09-12T11:10:22;97547.00;;;29.60
19040;BMP180;9652;49.014;12.052;2023-09-12T11:12:51;97557.00;;;29.70
19040;BMP180;9652;49.014;12.052;2023-09-12T11:15:20;97547.00;;;29.60
19040;BMP180;9652;49.014;12.052;2023-09-12T11:17:59;97550.00;;;29.80
19040;BMP180;9652;49.014;12.052;2023-09-12T11:20:51;97552.00;;;29.90
19040;BMP180;9652;49.014;12.052;2023-09-12T11:23:19;97551.00;;;29.90
19040;BMP180;9652;49.014;12.052;2023-09-12T11:25:47;97560.00;;;30.00
19040;BMP180;9652;49.014;12.052;2023-09-12T11:28:15;97502.00;;;30.10
19040;BMP180;9652;49.014;12.052;2023-09-12T11:30:58;97547.00;;;30.10
19040;BMP180;9652;49.014;12.052;2023-09-12T11:33:26;97542.00;;;30.20
19040;BMP180;9652;49.014;12.052;2023-09-12T11:35:55;97540.00;;;30.30
19040;BMP180;9652;49.014;12.052;2023-09-12T11:38:28;97535.00;;;30.30
19040;BMP180;9652;49.014;12.052;2023-09-12T11:40:59;97544.00;;;30.40
19040;BMP180;9652;49.014;12.052;2023-09-12T11:43:27;97544.00;;;30.40
19040;BMP180;9652;49.014;12.052;2023-09-12T11:45:56;97546.00;;;30.40
19040;BMP180;9652;49.014;12.052;2023-09-12T11:48:23;97533.00;;;30.50
19040;BMP180;9652;49.014;12.052;2023-09-12T11:50:53;97537.00;;;30.50
19040;BMP180;9652;49.014;12.052;2023-09-12T11:53:23;97531.00;;;30.50
19040;BMP180;9652;49.014;12.052;2023-09-12T11:55:54;97540.00;;;30.50
19040;BMP180;9652;49.014;12.052;2023-09-12T11:58:24;97530.00;;;30.60
19040;BMP180;9652;49.014;12.052;2023-09-12T12:00:52;97498.00;;;30.60
19040;BMP180;9652;49.014;12.052;2023-09-12T12:03:22;97537.00;;;30.60
19040;BMP180;9652;49.014;12.052;2023-09-12T12:05:52;97533.00;;;30.60
19040;BMP180;9652;49.014;12.052;2023-09-12T12:08:20;97533.00;;;30.70
19040;BMP180;9652;49.014;12.052;2023-09-12T12:10:50;97524.00;;;30.70
19040;BMP180;9652;49.014;12.052;2023-09-12T12:13:18;97529.00;;;30.70
19040;BMP180;9652;49.014;12.052;2023-09-12T12:15:45;97521.00;;;30.80
19040;BMP180;9652;49.014;12.052;2023-09-12T12:18:13;97522.00;;;30.80
19040;BMP180;9652;49.014;12.052;2023-09-12T12:20:40;97530.00;;;30.80
19040;BMP180;9652;49.014;12.052;2023-09-12T12:23:08;97516.00;;;30.90
19040;BMP180;9652;49.014;12.052;2023-09-12T12:25:36;97521.00;;;30.90
19040;BMP180;9652;49.014;12.052;2023-09-12T12:28:04;97515.00;;;31.00
19040;BMP180;9652;49.014;12.052;2023-09-12T12:30:32;97505.00;;;31.00
19040;BMP180;9652;49.014;12.052;2023-09-12T12:33:06;97511.00;;;31.10
19040;BMP180;9652;49.014;12.052;2023-09-12T12:35:33;97504.00;;;31.10
19040;BMP180;9652;49.014;12.052;2023-09-12T12:38:03;97509.00;;;31.20
19040;BMP180;9652;49.014;12.052;2023-09-12T12:40:31;97501.00;;;31.20
19040;BMP180;9652;49.014;12.052;2023-09-12T12:42:59;97504.00;;;31.30
19040;BMP180;9652;49.014;12.052;2023-09-12T12:45:26;97485.00;;;31.30
19040;BMP180;9652;49.014;12.052;2023-09-12T12:47:59;97505.00;;;31.30
19040;BMP180;9652;49.014;12.052;2023-09-12T12:50:27;97516.00;;;31.40
19040;BMP180;9652;49.014;12.052;2023-09-12T12:52:54;97501.00;;;31.40
19040;BMP180;9652;49.014;12.052;2023-09-12T12:55:25;97514.00;;;31.40
19040;BMP180;9652;49.014;12.052;2023-09-12T12:57:54;97495.00;;;31.50
19040;BMP180;9652;49.014;12.052;2023-09-12T13:00:21;97496.00;;;31.50
19040;BMP180;9652;49.014;12.052;2023-09-12T13:02:49;97440.00;;;31.60
19040;BMP180;9652;49.014;12.052;2023-09-12T13:05:26;97491.00;;;31.60
19040;BMP180;9652;49.014;12.052;2023-09-12T13:07:56;97483.00;;;31.70
19040;BMP180;9652;49.014;12.052;2023-09-12T13:10:23;97481.00;;;31.80
19040;BMP180;9652;49.014;12.052;2023-09-12T13:12:52;97494.00;;;31.80
19040;BMP180;9652;49.014;12.052;2023-09-12T13:15:19;97480.00;;;31.90
19040;BMP180;9652;49.014;12.052;2023-09-12T13:17:46;97480.00;;;31.90
19040;BMP180;9652;49.014;12.052;2023-09-12T13:20:13;97479.00;;;31.90
19040;BMP180;9652;49.014;12.052;2023-09-12T13:22:40;97470.00;;;32.00
19040;BMP180;9652;49.014;12.052;2023-09-12T13:25:09;97470.00;;;32.00
19040;BMP180;9652;49.014;12.052;2023-09-12T13:27:36;97472.00;;;32.10
19040;BMP180;9652;49.014;12.052;2023-09-12T13:30:07;97468.00;;;32.20
19040;BMP180;9652;49.014;12.052;2023-09-12T13:32:34;97468.00;;;32.30
19040;BMP180;9652;49.014;12.052;2023-09-12T13:35:01;97466.00;;;32.40
19040;BMP180;9652;49.014;12.052;2023-09-12T13:37:28;97479.00;;;32.50
19040;BMP180;9652;49.014;12.052;2023-09-12T13:39:56;97465.00;;;32.60
19040;BMP180;9652;49.014;12.052;2023-09-12T13:42:24;97462.00;;;32.70
19040;BMP180;9652;49.014;12.052;2023-09-12T13:44:56;97465.00;;;32.80
19040;BMP180;9652;49.014;12.052;2023-09-12T13:47:25;97467.00;;;32.90
19040;BMP180;9652;49.014;12.052;2023-09-12T13:49:52;97468.00;;;33.00
19040;BMP180;9652;49.014;12.052;2023-09-12T13:52:19;97471.00;;;33.10
19040;BMP180;9652;49.014;12.052;2023-09-12T13:54:46;97468.00;;;33.20
19040;BMP180;9652;49.014;12.052;2023-09-12T13:57:15;97462.00;;;33.30
19040;BMP180;9652;49.014;12.052;2023-09-12T13:59:42;97471.00;;;33.40
19040;BMP180;9652;49.014;12.052;2023-09-12T14:02:09;97464.00;;;33.60
19040;BMP180;9652;49.014;12.052;2023-09-12T14:04:38;97454.00;;;33.60
19040;BMP180;9652;49.014;12.052;2023-09-12T14:07:05;97440.00;;;33.70
19040;BMP180;9652;49.014;12.052;2023-09-12T14:09:32;97328.00;;;33.80
19040;BMP180;9652;49.014;12.052;2023-09-12T14:12:08;97448.00;;;33.80
19040;BMP180;9652;49.014;12.052;2023-09-12T14:14:36;97459.00;;;33.80
19040;BMP180;9652;49.014;12.052;2023-09-12T14:17:03;97455.00;;;33.80
19040;BMP180;9652;49.014;12.052;2023-09-12T14:19:30;97456.00;;;33.90